Richardson Corners, Massachusetts
Current Conditions -  °F | °C
As of 4:54 PM on Friday 24 Oct 2014 (Local Time) from KORH Reporting Station
Overcast Overcast  
Wind Chill: 43°   Ceiling: 1800
Heat Index: 48°   Visibility: 10mi
Dew Point: 40°   Wind: 13mph
Humidity: 74%   Direction: 310°NW
Pressure: 29.72"   Gusts: 24mph
Location:  42.1476°N, 71.9982°W
Report Text: KORH 242054Z 31011G21KT 10SM OVC018 09/04 A2972 RMK AO2 SLP068 T00890044 53004
Loading
Personal Weather Stations






























Interactive Weather Map
Tropical Storm Tracking
New forecast layout! Learn more

10-Day Weather Forecast

Advertisements
Track Severe Weather on mobile